sensor_id;sensor_type;location;lat;lon;timestamp;temperature;humidity
4826;DHT22;2427;50.934;6.776;2022-08-16T00:00:17;20.00;99.90
4826;DHT22;2427;50.934;6.776;2022-08-16T00:02:43;20.00;99.90
4826;DHT22;2427;50.934;6.776;2022-08-16T00:05:10;19.90;99.90
4826;DHT22;2427;50.934;6.776;2022-08-16T00:07:37;19.90;99.90
4826;DHT22;2427;50.934;6.776;2022-08-16T00:10:05;19.80;99.90
4826;DHT22;2427;50.934;6.776;2022-08-16T00:12:32;19.80;99.90
4826;DHT22;2427;50.934;6.776;2022-08-16T00:15:00;19.80;99.90
4826;DHT22;2427;50.934;6.776;2022-08-16T00:17:26;19.80;99.90
4826;DHT22;2427;50.934;6.776;2022-08-16T00:19:53;19.80;99.90
4826;DHT22;2427;50.934;6.776;2022-08-16T00:22:19;19.70;99.90
4826;DHT22;2427;50.934;6.776;2022-08-16T00:24:45;19.70;99.90
4826;DHT22;2427;50.934;6.776;2022-08-16T00:27:10;19.70;99.90
4826;DHT22;2427;50.934;6.776;2022-08-16T00:29:36;19.60;99.90
4826;DHT22;2427;50.934;6.776;2022-08-16T00:32:04;19.60;99.90
4826;DHT22;2427;50.934;6.776;2022-08-16T00:34:30;19.60;99.90
4826;DHT22;2427;50.934;6.776;2022-08-16T00:36:56;19.60;99.90
4826;DHT22;2427;50.934;6.776;2022-08-16T00:39:21;19.60;99.90
4826;DHT22;2427;50.934;6.776;2022-08-16T00:41:48;19.60;99.90
4826;DHT22;2427;50.934;6.776;2022-08-16T00:44:15;19.50;99.90
4826;DHT22;2427;50.934;6.776;2022-08-16T00:46:57;19.40;99.90
4826;DHT22;2427;50.934;6.776;2022-08-16T00:49:25;19.40;99.90
4826;DHT22;2427;50.934;6.776;2022-08-16T00:51:52;19.30;99.90
4826;DHT22;2427;50.934;6.776;2022-08-16T00:54:19;19.20;1.00
4826;DHT22;2427;50.934;6.776;2022-08-16T00:56:47;19.20;1.00
4826;DHT22;2427;50.934;6.776;2022-08-16T00:59:16;19.10;99.90
4826;DHT22;2427;50.934;6.776;2022-08-16T01:12:06;18.90;1.00
4826;DHT22;2427;50.934;6.776;2022-08-16T01:14:46;19.00;1.00
4826;DHT22;2427;50.934;6.776;2022-08-16T01:17:16;18.90;1.00
4826;DHT22;2427;50.934;6.776;2022-08-16T01:19:47;18.90;1.00
4826;DHT22;2427;50.934;6.776;2022-08-16T01:22:50;18.80;1.00
4826;DHT22;2427;50.934;6.776;2022-08-16T01:25:11;18.80;1.00
4826;DHT22;2427;50.934;6.776;2022-08-16T01:27:47;18.70;1.00
4826;DHT22;2427;50.934;6.776;2022-08-16T01:30:21;18.70;1.00
4826;DHT22;2427;50.934;6.776;2022-08-16T01:32:49;18.70;1.00
4826;DHT22;2427;50.934;6.776;2022-08-16T01:35:51;18.80;1.00
4826;DHT22;2427;50.934;6.776;2022-08-16T01:38:27;18.60;1.00
4826;DHT22;2427;50.934;6.776;2022-08-16T01:40:57;18.60;1.00
4826;DHT22;2427;50.934;6.776;2022-08-16T01:43:23;18.60;1.00
4826;DHT22;2427;50.934;6.776;2022-08-16T01:45:53;18.50;1.00
4826;DHT22;2427;50.934;6.776;2022-08-16T01:48:20;18.40;1.00
4826;DHT22;2427;50.934;6.776;2022-08-16T01:50:49;18.50;1.00
4826;DHT22;2427;50.934;6.776;2022-08-16T01:53:16;18.40;1.00
4826;DHT22;2427;50.934;6.776;2022-08-16T01:55:41;18.40;1.00
4826;DHT22;2427;50.934;6.776;2022-08-16T01:58:10;18.30;1.00
4826;DHT22;2427;50.934;6.776;2022-08-16T02:00:36;18.20;8.80
4826;DHT22;2427;50.934;6.776;2022-08-16T02:03:02;18.20;4.10
4826;DHT22;2427;50.934;6.776;2022-08-16T02:05:28;18.10;10.90
4826;DHT22;2427;50.934;6.776;2022-08-16T02:07:53;18.10;72.00
4826;DHT22;2427;50.934;6.776;2022-08-16T02:10:19;18.00;99.90
4826;DHT22;2427;50.934;6.776;2022-08-16T02:12:45;18.10;99.90
4826;DHT22;2427;50.934;6.776;2022-08-16T02:15:13;18.00;44.70
4826;DHT22;2427;50.934;6.776;2022-08-16T02:17:39;18.00;99.90
4826;DHT22;2427;50.934;6.776;2022-08-16T02:20:06;18.10;99.90
4826;DHT22;2427;50.934;6.776;2022-08-16T02:22:32;18.00;99.90
4826;DHT22;2427;50.934;6.776;2022-08-16T02:24:58;18.00;99.90
4826;DHT22;2427;50.934;6.776;2022-08-16T02:27:24;18.00;99.90
4826;DHT22;2427;50.934;6.776;2022-08-16T02:29:50;18.00;99.90
4826;DHT22;2427;50.934;6.776;2022-08-16T02:32:16;18.00;99.90
4826;DHT22;2427;50.934;6.776;2022-08-16T02:34:43;18.00;99.90
4826;DHT22;2427;50.934;6.776;2022-08-16T02:37:09;18.00;99.90
4826;DHT22;2427;50.934;6.776;2022-08-16T02:39:35;17.90;99.90
4826;DHT22;2427;50.934;6.776;2022-08-16T02:42:00;17.90;99.90
4826;DHT22;2427;50.934;6.776;2022-08-16T02:44:27;17.90;99.90
4826;DHT22;2427;50.934;6.776;2022-08-16T02:46:52;17.80;99.90
4826;DHT22;2427;50.934;6.776;2022-08-16T02:49:18;17.80;99.90
4826;DHT22;2427;50.934;6.776;2022-08-16T02:51:44;17.80;99.90
4826;DHT22;2427;50.934;6.776;2022-08-16T02:54:12;17.80;99.90
4826;DHT22;2427;50.934;6.776;2022-08-16T02:56:40;17.80;99.90
4826;DHT22;2427;50.934;6.776;2022-08-16T02:59:06;17.80;99.90
4826;DHT22;2427;50.934;6.776;2022-08-16T03:01:33;17.80;99.90
4826;DHT22;2427;50.934;6.776;2022-08-16T03:04:01;17.80;99.90
4826;DHT22;2427;50.934;6.776;2022-08-16T03:06:27;17.70;99.90
4826;DHT22;2427;50.934;6.776;2022-08-16T03:08:53;17.70;99.90
4826;DHT22;2427;50.934;6.776;2022-08-16T03:11:19;17.70;99.90
4826;DHT22;2427;50.934;6.776;2022-08-16T03:13:48;17.70;99.90
4826;DHT22;2427;50.934;6.776;2022-08-16T03:16:14;17.70;99.90
4826;DHT22;2427;50.934;6.776;2022-08-16T03:18:40;17.60;99.90
4826;DHT22;2427;50.934;6.776;2022-08-16T03:21:07;17.60;99.90
4826;DHT22;2427;50.934;6.776;2022-08-16T03:23:33;17.60;99.90
4826;DHT22;2427;50.934;6.776;2022-08-16T03:25:59;17.60;99.90
4826;DHT22;2427;50.934;6.776;2022-08-16T03:28:25;17.50;99.90
4826;DHT22;2427;50.934;6.776;2022-08-16T03:30:51;17.50;1.00
4826;DHT22;2427;50.934;6.776;2022-08-16T03:33:17;17.50;99.90
4826;DHT22;2427;50.934;6.776;2022-08-16T03:35:43;17.40;1.00
4826;DHT22;2427;50.934;6.776;2022-08-16T03:38:11;17.40;1.00
4826;DHT22;2427;50.934;6.776;2022-08-16T03:40:38;17.30;1.00
4826;DHT22;2427;50.934;6.776;2022-08-16T03:43:06;17.30;1.00
4826;DHT22;2427;50.934;6.776;2022-08-16T03:45:33;17.30;1.00
4826;DHT22;2427;50.934;6.776;2022-08-16T03:47:59;17.30;1.00
4826;DHT22;2427;50.934;6.776;2022-08-16T03:50:25;17.30;1.00
4826;DHT22;2427;50.934;6.776;2022-08-16T03:52:51;17.30;1.00
4826;DHT22;2427;50.934;6.776;2022-08-16T03:55:17;17.30;1.00
4826;DHT22;2427;50.934;6.776;2022-08-16T03:57:43;17.30;1.00
4826;DHT22;2427;50.934;6.776;2022-08-16T04:00:14;17.30;1.00
4826;DHT22;2427;50.934;6.776;2022-08-16T04:02:41;17.30;1.00
4826;DHT22;2427;50.934;6.776;2022-08-16T04:05:08;17.30;1.00
4826;DHT22;2427;50.934;6.776;2022-08-16T04:07:34;17.30;1.00
4826;DHT22;2427;50.934;6.776;2022-08-16T04:09:59;17.20;1.00
4826;DHT22;2427;50.934;6.776;2022-08-16T04:12:25;17.20;1.00
4826;DHT22;2427;50.934;6.776;2022-08-16T04:14:51;17.20;1.00
4826;DHT22;2427;50.934;6.776;2022-08-16T04:17:16;17.20;1.00
4826;DHT22;2427;50.934;6.776;2022-08-16T04:19:42;17.20;1.00
4826;DHT22;2427;50.934;6.776;2022-08-16T04:22:11;17.20;1.00
4826;DHT22;2427;50.934;6.776;2022-08-16T04:24:37;17.20;1.00
4826;DHT22;2427;50.934;6.776;2022-08-16T04:27:03;17.10;1.00
4826;DHT22;2427;50.934;6.776;2022-08-16T04:29:29;17.20;1.00
4826;DHT22;2427;50.934;6.776;2022-08-16T04:31:55;17.10;1.00
4826;DHT22;2427;50.934;6.776;2022-08-16T04:34:22;17.10;1.00
4826;DHT22;2427;50.934;6.776;2022-08-16T04:36:49;17.10;1.00
4826;DHT22;2427;50.934;6.776;2022-08-16T04:39:14;17.10;1.00
4826;DHT22;2427;50.934;6.776;2022-08-16T04:41:40;17.10;1.00
4826;DHT22;2427;50.934;6.776;2022-08-16T04:44:06;17.10;1.00
4826;DHT22;2427;50.934;6.776;2022-08-16T04:46:32;17.10;1.00
4826;DHT22;2427;50.934;6.776;2022-08-16T04:48:57;17.10;1.00
4826;DHT22;2427;50.934;6.776;2022-08-16T04:51:23;17.10;1.00
4826;DHT22;2427;50.934;6.776;2022-08-16T04:53:49;17.10;1.00
4826;DHT22;2427;50.934;6.776;2022-08-16T04:56:16;17.20;1.00
4826;DHT22;2427;50.934;6.776;2022-08-16T04:58:43;17.30;1.00
4826;DHT22;2427;50.934;6.776;2022-08-16T05:01:09;17.40;1.00
4826;DHT22;2427;50.934;6.776;2022-08-16T05:03:35;17.40;1.00
4826;DHT22;2427;50.934;6.776;2022-08-16T05:06:00;17.50;1.00
4826;DHT22;2427;50.934;6.776;2022-08-16T05:08:27;17.60;1.00
4826;DHT22;2427;50.934;6.776;2022-08-16T05:10:54;17.60;1.00
4826;DHT22;2427;50.934;6.776;2022-08-16T05:13:19;17.70;1.00
4826;DHT22;2427;50.934;6.776;2022-08-16T05:15:46;17.80;99.90
4826;DHT22;2427;50.934;6.776;2022-08-16T05:18:13;17.80;99.90
4826;DHT22;2427;50.934;6.776;2022-08-16T05:20:39;17.80;99.90
4826;DHT22;2427;50.934;6.776;2022-08-16T05:23:05;17.90;99.90
4826;DHT22;2427;50.934;6.776;2022-08-16T05:25:31;17.90;99.90
4826;DHT22;2427;50.934;6.776;2022-08-16T05:27:56;18.00;99.90
4826;DHT22;2427;50.934;6.776;2022-08-16T05:30:24;18.10;99.90
4826;DHT22;2427;50.934;6.776;2022-08-16T05:32:49;18.20;99.90
4826;DHT22;2427;50.934;6.776;2022-08-16T05:35:15;18.50;99.90
4826;DHT22;2427;50.934;6.776;2022-08-16T05:37:41;18.70;10.80
4826;DHT22;2427;50.934;6.776;2022-08-16T05:40:09;18.70;1.00
4826;DHT22;2427;50.934;6.776;2022-08-16T05:42:35;18.80;1.00
4826;DHT22;2427;50.934;6.776;2022-08-16T05:45:01;18.90;1.00
4826;DHT22;2427;50.934;6.776;2022-08-16T05:47:27;18.90;1.00
4826;DHT22;2427;50.934;6.776;2022-08-16T05:49:53;19.00;1.00
4826;DHT22;2427;50.934;6.776;2022-08-16T05:52:19;19.10;1.00
4826;DHT22;2427;50.934;6.776;2022-08-16T05:54:44;19.10;1.00
4826;DHT22;2427;50.934;6.776;2022-08-16T05:57:10;19.20;1.00
4826;DHT22;2427;50.934;6.776;2022-08-16T05:59:36;19.30;1.00
4826;DHT22;2427;50.934;6.776;2022-08-16T06:02:03;19.40;1.00
4826;DHT22;2427;50.934;6.776;2022-08-16T06:04:29;19.40;99.90
4826;DHT22;2427;50.934;6.776;2022-08-16T06:06:55;19.50;99.90
4826;DHT22;2427;50.934;6.776;2022-08-16T06:09:20;19.70;99.90
4826;DHT22;2427;50.934;6.776;2022-08-16T06:11:46;19.80;99.90
4826;DHT22;2427;50.934;6.776;2022-08-16T06:14:12;19.90;99.90
4826;DHT22;2427;50.934;6.776;2022-08-16T06:16:37;20.00;99.90
4826;DHT22;2427;50.934;6.776;2022-08-16T06:19:03;20.10;99.90
4826;DHT22;2427;50.934;6.776;2022-08-16T06:21:29;20.20;13.80
4826;DHT22;2427;50.934;6.776;2022-08-16T06:23:55;20.30;1.00
4826;DHT22;2427;50.934;6.776;2022-08-16T06:26:21;20.50;1.00
4826;DHT22;2427;50.934;6.776;2022-08-16T06:28:48;20.60;1.00
4826;DHT22;2427;50.934;6.776;2022-08-16T06:31:14;20.70;1.00
4826;DHT22;2427;50.934;6.776;2022-08-16T06:33:41;20.80;1.00
4826;DHT22;2427;50.934;6.776;2022-08-16T06:36:07;20.90;1.00
4826;DHT22;2427;50.934;6.776;2022-08-16T06:38:34;20.90;1.00
4826;DHT22;2427;50.934;6.776;2022-08-16T06:41:03;21.00;1.00
4826;DHT22;2427;50.934;6.776;2022-08-16T06:43:29;21.10;1.00
4826;DHT22;2427;50.934;6.776;2022-08-16T06:45:55;21.20;1.00
4826;DHT22;2427;50.934;6.776;2022-08-16T06:48:21;21.40;1.00
4826;DHT22;2427;50.934;6.776;2022-08-16T06:50:46;21.50;1.00
4826;DHT22;2427;50.934;6.776;2022-08-16T06:53:14;21.50;1.00
4826;DHT22;2427;50.934;6.776;2022-08-16T06:55:40;21.50;1.00
4826;DHT22;2427;50.934;6.776;2022-08-16T06:58:07;21.60;1.00
4826;DHT22;2427;50.934;6.776;2022-08-16T07:00:33;21.70;1.00
4826;DHT22;2427;50.934;6.776;2022-08-16T07:02:58;21.80;99.90
4826;DHT22;2427;50.934;6.776;2022-08-16T07:05:24;21.90;99.90
4826;DHT22;2427;50.934;6.776;2022-08-16T07:07:50;21.90;99.90
4826;DHT22;2427;50.934;6.776;2022-08-16T07:10:18;22.00;99.90
4826;DHT22;2427;50.934;6.776;2022-08-16T07:12:45;22.00;99.90
4826;DHT22;2427;50.934;6.776;2022-08-16T07:15:12;22.10;99.90
4826;DHT22;2427;50.934;6.776;2022-08-16T07:17:37;22.10;99.90
4826;DHT22;2427;50.934;6.776;2022-08-16T07:20:04;22.10;99.90
4826;DHT22;2427;50.934;6.776;2022-08-16T07:22:30;22.20;99.90
4826;DHT22;2427;50.934;6.776;2022-08-16T07:24:56;22.20;99.90
4826;DHT22;2427;50.934;6.776;2022-08-16T07:27:22;22.30;99.90
4826;DHT22;2427;50.934;6.776;2022-08-16T07:29:47;22.40;99.90
4826;DHT22;2427;50.934;6.776;2022-08-16T07:32:13;22.40;99.90
4826;DHT22;2427;50.934;6.776;2022-08-16T07:34:39;22.50;99.90
4826;DHT22;2427;50.934;6.776;2022-08-16T07:37:09;22.60;99.90
4826;DHT22;2427;50.934;6.776;2022-08-16T07:39:36;22.80;99.90
4826;DHT22;2427;50.934;6.776;2022-08-16T07:42:02;22.80;99.90
4826;DHT22;2427;50.934;6.776;2022-08-16T07:44:27;22.90;99.90
4826;DHT22;2427;50.934;6.776;2022-08-16T07:46:55;23.00;99.90
4826;DHT22;2427;50.934;6.776;2022-08-16T07:49:21;23.00;99.90
4826;DHT22;2427;50.934;6.776;2022-08-16T07:51:46;23.10;99.90
4826;DHT22;2427;50.934;6.776;2022-08-16T07:54:12;23.20;99.90
4826;DHT22;2427;50.934;6.776;2022-08-16T07:56:38;23.30;99.90
4826;DHT22;2427;50.934;6.776;2022-08-16T07:59:05;23.30;99.90
4826;DHT22;2427;50.934;6.776;2022-08-16T08:01:31;23.40;99.90
4826;DHT22;2427;50.934;6.776;2022-08-16T08:03:57;23.60;99.90
4826;DHT22;2427;50.934;6.776;2022-08-16T08:06:25;23.60;99.90
4826;DHT22;2427;50.934;6.776;2022-08-16T08:08:55;23.50;99.90
4826;DHT22;2427;50.934;6.776;2022-08-16T08:11:22;23.60;99.90
4826;DHT22;2427;50.934;6.776;2022-08-16T08:13:50;23.70;99.90
4826;DHT22;2427;50.934;6.776;2022-08-16T08:16:17;23.70;99.90
4826;DHT22;2427;50.934;6.776;2022-08-16T08:18:43;23.70;99.90
4826;DHT22;2427;50.934;6.776;2022-08-16T08:21:09;23.70;99.90
4826;DHT22;2427;50.934;6.776;2022-08-16T08:23:35;23.70;99.90
4826;DHT22;2427;50.934;6.776;2022-08-16T08:26:02;23.80;99.90
4826;DHT22;2427;50.934;6.776;2022-08-16T08:28:28;23.90;99.90
4826;DHT22;2427;50.934;6.776;2022-08-16T08:30:57;23.90;99.90
4826;DHT22;2427;50.934;6.776;2022-08-16T08:33:23;24.00;99.90
4826;DHT22;2427;50.934;6.776;2022-08-16T08:35:48;24.00;99.90
4826;DHT22;2427;50.934;6.776;2022-08-16T08:38:14;24.10;99.90
4826;DHT22;2427;50.934;6.776;2022-08-16T08:40:42;24.30;99.90
4826;DHT22;2427;50.934;6.776;2022-08-16T08:43:09;24.30;99.90
4826;DHT22;2427;50.934;6.776;2022-08-16T08:45:39;24.40;99.90
4826;DHT22;2427;50.934;6.776;2022-08-16T08:48:05;24.40;99.90
4826;DHT22;2427;50.934;6.776;2022-08-16T08:50:31;24.40;99.90
4826;DHT22;2427;50.934;6.776;2022-08-16T08:52:57;24.50;99.90
4826;DHT22;2427;50.934;6.776;2022-08-16T08:55:22;24.50;99.90
4826;DHT22;2427;50.934;6.776;2022-08-16T08:57:49;24.60;99.90
4826;DHT22;2427;50.934;6.776;2022-08-16T09:00:19;24.80;99.90
4826;DHT22;2427;50.934;6.776;2022-08-16T09:02:45;25.00;99.90
4826;DHT22;2427;50.934;6.776;2022-08-16T09:05:15;25.20;99.90
4826;DHT22;2427;50.934;6.776;2022-08-16T09:07:42;25.40;99.90
4826;DHT22;2427;50.934;6.776;2022-08-16T09:10:09;25.60;99.90
4826;DHT22;2427;50.934;6.776;2022-08-16T09:12:35;25.70;99.90
4826;DHT22;2427;50.934;6.776;2022-08-16T09:15:01;25.70;99.90
4826;DHT22;2427;50.934;6.776;2022-08-16T09:17:27;25.90;99.90
4826;DHT22;2427;50.934;6.776;2022-08-16T09:19:53;25.90;99.90
4826;DHT22;2427;50.934;6.776;2022-08-16T09:22:21;26.10;99.90
4826;DHT22;2427;50.934;6.776;2022-08-16T09:24:47;26.20;99.90
4826;DHT22;2427;50.934;6.776;2022-08-16T09:27:13;26.20;99.90
4826;DHT22;2427;50.934;6.776;2022-08-16T09:29:39;26.20;99.90
4826;DHT22;2427;50.934;6.776;2022-08-16T09:32:04;26.20;99.90
4826;DHT22;2427;50.934;6.776;2022-08-16T09:34:30;26.20;99.90
4826;DHT22;2427;50.934;6.776;2022-08-16T09:36:57;26.20;99.90
4826;DHT22;2427;50.934;6.776;2022-08-16T09:39:26;26.30;99.90
4826;DHT22;2427;50.934;6.776;2022-08-16T09:41:53;26.30;99.90
4826;DHT22;2427;50.934;6.776;2022-08-16T09:44:24;26.30;99.90
4826;DHT22;2427;50.934;6.776;2022-08-16T09:46:51;26.50;99.90
4826;DHT22;2427;50.934;6.776;2022-08-16T09:49:17;26.50;99.90
4826;DHT22;2427;50.934;6.776;2022-08-16T09:51:43;26.60;99.90
4826;DHT22;2427;50.934;6.776;2022-08-16T09:54:09;26.70;99.90
4826;DHT22;2427;50.934;6.776;2022-08-16T09:56:36;26.70;99.90
4826;DHT22;2427;50.934;6.776;2022-08-16T09:59:04;26.80;99.90
4826;DHT22;2427;50.934;6.776;2022-08-16T10:01:30;26.60;99.90
4826;DHT22;2427;50.934;6.776;2022-08-16T10:03:57;26.50;99.90
4826;DHT22;2427;50.934;6.776;2022-08-16T10:06:24;26.50;99.90
4826;DHT22;2427;50.934;6.776;2022-08-16T10:08:51;26.60;99.90
4826;DHT22;2427;50.934;6.776;2022-08-16T10:11:17;26.70;99.90
4826;DHT22;2427;50.934;6.776;2022-08-16T10:14:01;26.90;99.90
4826;DHT22;2427;50.934;6.776;2022-08-16T10:16:27;27.00;99.90
4826;DHT22;2427;50.934;6.776;2022-08-16T10:18:53;27.10;99.90
4826;DHT22;2427;50.934;6.776;2022-08-16T10:21:19;27.40;99.90
4826;DHT22;2427;50.934;6.776;2022-08-16T10:23:45;27.70;99.90
4826;DHT22;2427;50.934;6.776;2022-08-16T10:26:11;27.90;99.90
4826;DHT22;2427;50.934;6.776;2022-08-16T10:28:37;28.10;99.90
4826;DHT22;2427;50.934;6.776;2022-08-16T10:31:04;28.30;99.90
4826;DHT22;2427;50.934;6.776;2022-08-16T10:33:31;28.40;99.90
4826;DHT22;2427;50.934;6.776;2022-08-16T10:35:59;28.50;99.90
4826;DHT22;2427;50.934;6.776;2022-08-16T10:38:25;28.60;99.90
4826;DHT22;2427;50.934;6.776;2022-08-16T10:40:51;28.50;99.90
4826;DHT22;2427;50.934;6.776;2022-08-16T10:43:19;28.30;99.90
4826;DHT22;2427;50.934;6.776;2022-08-16T10:45:45;28.10;99.90
4826;DHT22;2427;50.934;6.776;2022-08-16T10:48:13;27.90;99.90
4826;DHT22;2427;50.934;6.776;2022-08-16T10:50:39;27.90;99.90
4826;DHT22;2427;50.934;6.776;2022-08-16T10:53:05;28.00;99.90
4826;DHT22;2427;50.934;6.776;2022-08-16T10:55:39;28.00;99.90
4826;DHT22;2427;50.934;6.776;2022-08-16T10:58:06;28.10;99.90
4826;DHT22;2427;50.934;6.776;2022-08-16T11:00:33;28.10;99.90
4826;DHT22;2427;50.934;6.776;2022-08-16T11:03:00;28.30;99.90
4826;DHT22;2427;50.934;6.776;2022-08-16T11:05:34;28.50;99.90
4826;DHT22;2427;50.934;6.776;2022-08-16T11:08:00;28.80;99.90
4826;DHT22;2427;50.934;6.776;2022-08-16T11:10:30;28.90;99.90
4826;DHT22;2427;50.934;6.776;2022-08-16T11:12:56;29.10;99.90
4826;DHT22;2427;50.934;6.776;2022-08-16T11:15:22;29.30;99.90
4826;DHT22;2427;50.934;6.776;2022-08-16T11:17:50;29.40;99.90
4826;DHT22;2427;50.934;6.776;2022-08-16T11:20:16;29.60;99.90
4826;DHT22;2427;50.934;6.776;2022-08-16T11:22:44;29.70;99.90
4826;DHT22;2427;50.934;6.776;2022-08-16T11:25:12;29.80;99.90
4826;DHT22;2427;50.934;6.776;2022-08-16T11:27:38;30.10;99.90
4826;DHT22;2427;50.934;6.776;2022-08-16T11:30:07;30.30;99.90
4826;DHT22;2427;50.934;6.776;2022-08-16T11:32:33;30.40;99.90
4826;DHT22;2427;50.934;6.776;2022-08-16T11:35:11;30.30;99.90
4826;DHT22;2427;50.934;6.776;2022-08-16T11:37:37;30.40;99.90
4826;DHT22;2427;50.934;6.776;2022-08-16T11:40:04;30.50;99.90
4826;DHT22;2427;50.934;6.776;2022-08-16T11:42:31;30.50;99.90
4826;DHT22;2427;50.934;6.776;2022-08-16T11:44:57;30.50;99.90
4826;DHT22;2427;50.934;6.776;2022-08-16T11:47:22;30.80;99.90
4826;DHT22;2427;50.934;6.776;2022-08-16T11:49:48;30.90;99.90
4826;DHT22;2427;50.934;6.776;2022-08-16T11:52:14;31.20;99.90
4826;DHT22;2427;50.934;6.776;2022-08-16T11:54:45;31.10;99.90
4826;DHT22;2427;50.934;6.776;2022-08-16T11:57:11;30.80;99.90
4826;DHT22;2427;50.934;6.776;2022-08-16T11:59:38;30.80;99.90
4826;DHT22;2427;50.934;6.776;2022-08-16T12:02:05;30.90;99.90
4826;DHT22;2427;50.934;6.776;2022-08-16T12:04:32;31.10;99.90
4826;DHT22;2427;50.934;6.776;2022-08-16T12:06:59;31.50;99.90
4826;DHT22;2427;50.934;6.776;2022-08-16T12:09:26;31.70;99.90
4826;DHT22;2427;50.934;6.776;2022-08-16T12:11:52;32.10;99.90
4826;DHT22;2427;50.934;6.776;2022-08-16T12:14:18;32.20;99.90
4826;DHT22;2427;50.934;6.776;2022-08-16T12:16:44;32.30;99.90
4826;DHT22;2427;50.934;6.776;2022-08-16T12:19:10;32.10;99.90
4826;DHT22;2427;50.934;6.776;2022-08-16T12:21:35;31.90;99.90
4826;DHT22;2427;50.934;6.776;2022-08-16T12:24:01;31.60;99.90
4826;DHT22;2427;50.934;6.776;2022-08-16T12:26:27;31.30;99.90
4826;DHT22;2427;50.934;6.776;2022-08-16T12:28:53;30.90;99.90
4826;DHT22;2427;50.934;6.776;2022-08-16T12:31:20;30.80;99.90
4826;DHT22;2427;50.934;6.776;2022-08-16T12:33:46;31.00;99.90
4826;DHT22;2427;50.934;6.776;2022-08-16T12:36:12;30.90;99.90
4826;DHT22;2427;50.934;6.776;2022-08-16T12:38:38;30.90;99.90
4826;DHT22;2427;50.934;6.776;2022-08-16T12:41:04;31.10;99.90
4826;DHT22;2427;50.934;6.776;2022-08-16T12:43:30;31.30;99.90
4826;DHT22;2427;50.934;6.776;2022-08-16T12:45:55;31.70;99.90
4826;DHT22;2427;50.934;6.776;2022-08-16T12:48:25;32.10;99.90
4826;DHT22;2427;50.934;6.776;2022-08-16T12:51:12;32.40;99.90
4826;DHT22;2427;50.934;6.776;2022-08-16T12:53:39;32.60;99.90
4826;DHT22;2427;50.934;6.776;2022-08-16T12:56:06;32.70;99.90
4826;DHT22;2427;50.934;6.776;2022-08-16T12:58:32;32.80;99.90
4826;DHT22;2427;50.934;6.776;2022-08-16T13:00:58;33.00;99.90
4826;DHT22;2427;50.934;6.776;2022-08-16T13:03:24;33.20;99.90
4826;DHT22;2427;50.934;6.776;2022-08-16T13:05:50;33.40;99.90
4826;DHT22;2427;50.934;6.776;2022-08-16T13:08:18;33.80;99.90
4826;DHT22;2427;50.934;6.776;2022-08-16T13:10:46;34.20;99.90
4826;DHT22;2427;50.934;6.776;2022-08-16T13:13:14;34.40;99.90
4826;DHT22;2427;50.934;6.776;2022-08-16T13:15:42;34.60;99.90
4826;DHT22;2427;50.934;6.776;2022-08-16T13:18:08;34.80;99.90
4826;DHT22;2427;50.934;6.776;2022-08-16T13:20:34;34.70;99.90
4826;DHT22;2427;50.934;6.776;2022-08-16T13:23:05;34.30;99.90
4826;DHT22;2427;50.934;6.776;2022-08-16T13:25:34;33.90;99.90
4826;DHT22;2427;50.934;6.776;2022-08-16T13:28:00;33.90;99.90
4826;DHT22;2427;50.934;6.776;2022-08-16T13:30:28;34.40;99.90
4826;DHT22;2427;50.934;6.776;2022-08-16T13:32:54;34.90;99.90
4826;DHT22;2427;50.934;6.776;2022-08-16T13:35:21;35.60;99.90
4826;DHT22;2427;50.934;6.776;2022-08-16T13:37:47;36.00;99.90
4826;DHT22;2427;50.934;6.776;2022-08-16T13:40:13;36.30;99.90
4826;DHT22;2427;50.934;6.776;2022-08-16T13:42:39;36.50;99.90
4826;DHT22;2427;50.934;6.776;2022-08-16T13:45:06;37.60;99.90
4826;DHT22;2427;50.934;6.776;2022-08-16T13:47:33;37.80;99.90
4826;DHT22;2427;50.934;6.776;2022-08-16T13:49:58;38.60;99.90
4826;DHT22;2427;50.934;6.776;2022-08-16T13:52:24;38.50;99.50
4826;DHT22;2427;50.934;6.776;2022-08-16T13:54:50;38.80;97.00
4826;DHT22;2427;50.934;6.776;2022-08-16T13:57:16;39.50;95.30
4826;DHT22;2427;50.934;6.776;2022-08-16T13:59:41;40.60;93.10
4826;DHT22;2427;50.934;6.776;2022-08-16T14:02:08;40.60;90.40
4826;DHT22;2427;50.934;6.776;2022-08-16T14:04:36;40.60;88.10
4826;DHT22;2427;50.934;6.776;2022-08-16T14:07:04;39.70;83.30
4826;DHT22;2427;50.934;6.776;2022-08-16T14:09:31;38.60;77.70
4826;DHT22;2427;50.934;6.776;2022-08-16T14:11:59;37.50;75.20
4826;DHT22;2427;50.934;6.776;2022-08-16T14:14:26;35.70;72.00
4826;DHT22;2427;50.934;6.776;2022-08-16T14:16:52;34.80;71.20
4826;DHT22;2427;50.934;6.776;2022-08-16T14:19:18;34.00;73.70
4826;DHT22;2427;50.934;6.776;2022-08-16T14:21:47;33.40;74.90
4826;DHT22;2427;50.934;6.776;2022-08-16T14:24:13;33.10;76.80
4826;DHT22;2427;50.934;6.776;2022-08-16T14:26:41;32.70;77.20
4826;DHT22;2427;50.934;6.776;2022-08-16T14:29:07;32.50;80.20
4826;DHT22;2427;50.934;6.776;2022-08-16T14:31:32;32.50;82.80
4826;DHT22;2427;50.934;6.776;2022-08-16T14:33:58;32.40;85.00
4826;DHT22;2427;50.934;6.776;2022-08-16T14:36:24;32.50;88.00
4826;DHT22;2427;50.934;6.776;2022-08-16T14:38:49;33.00;91.00
4826;DHT22;2427;50.934;6.776;2022-08-16T14:41:15;34.00;93.30
4826;DHT22;2427;50.934;6.776;2022-08-16T14:43:40;34.80;94.70
4826;DHT22;2427;50.934;6.776;2022-08-16T14:46:06;35.30;94.90
4826;DHT22;2427;50.934;6.776;2022-08-16T14:48:32;35.20;94.00
4826;DHT22;2427;50.934;6.776;2022-08-16T14:50:57;34.80;93.60
4826;DHT22;2427;50.934;6.776;2022-08-16T14:53:24;34.50;93.70
4826;DHT22;2427;50.934;6.776;2022-08-16T14:55:50;34.00;92.90
4826;DHT22;2427;50.934;6.776;2022-08-16T14:58:16;33.70;93.00
4826;DHT22;2427;50.934;6.776;2022-08-16T15:00:43;33.10;92.80
4826;DHT22;2427;50.934;6.776;2022-08-16T15:03:10;32.50;91.90
4826;DHT22;2427;50.934;6.776;2022-08-16T15:05:37;32.10;91.90
4826;DHT22;2427;50.934;6.776;2022-08-16T15:08:03;31.80;92.20
4826;DHT22;2427;50.934;6.776;2022-08-16T15:10:29;31.50;92.60
4826;DHT22;2427;50.934;6.776;2022-08-16T15:12:55;31.30;93.10
4826;DHT22;2427;50.934;6.776;2022-08-16T15:15:25;31.20;94.00
4826;DHT22;2427;50.934;6.776;2022-08-16T15:17:51;31.20;95.00
4826;DHT22;2427;50.934;6.776;2022-08-16T15:20:18;31.20;96.00
4826;DHT22;2427;50.934;6.776;2022-08-16T15:22:47;31.10;97.30
4826;DHT22;2427;50.934;6.776;2022-08-16T15:25:19;31.10;97.70
4826;DHT22;2427;50.934;6.776;2022-08-16T15:27:46;31.00;98.30
4826;DHT22;2427;50.934;6.776;2022-08-16T15:30:16;30.90;97.80
4826;DHT22;2427;50.934;6.776;2022-08-16T15:32:42;30.90;98.70
4826;DHT22;2427;50.934;6.776;2022-08-16T15:35:08;30.90;98.80
4826;DHT22;2427;50.934;6.776;2022-08-16T15:37:35;30.70;98.90
4826;DHT22;2427;50.934;6.776;2022-08-16T15:40:05;30.50;99.30
4826;DHT22;2427;50.934;6.776;2022-08-16T15:42:32;30.40;99.70
4826;DHT22;2427;50.934;6.776;2022-08-16T15:44:59;30.30;99.90
4826;DHT22;2427;50.934;6.776;2022-08-16T15:47:25;30.20;99.90
4826;DHT22;2427;50.934;6.776;2022-08-16T15:49:55;30.30;99.90
4826;DHT22;2427;50.934;6.776;2022-08-16T15:52:27;30.20;99.90
4826;DHT22;2427;50.934;6.776;2022-08-16T15:54:53;30.20;99.90
4826;DHT22;2427;50.934;6.776;2022-08-16T15:57:19;30.30;99.90
4826;DHT22;2427;50.934;6.776;2022-08-16T15:59:45;30.30;99.90
4826;DHT22;2427;50.934;6.776;2022-08-16T16:02:14;30.40;99.90
4826;DHT22;2427;50.934;6.776;2022-08-16T16:04:41;30.40;99.90
4826;DHT22;2427;50.934;6.776;2022-08-16T16:07:06;30.20;99.90
4826;DHT22;2427;50.934;6.776;2022-08-16T16:09:34;30.20;99.90
4826;DHT22;2427;50.934;6.776;2022-08-16T16:11:59;30.10;99.90